sensor_id;sensor_type;location;lat;lon;timestamp;P1;durP1;ratioP1;P2;durP2;ratioP2
20080;SDS011;10200;49.232;9.222;2024-01-30T00:01:10;18.80;;;10.63;;
20080;SDS011;10200;49.232;9.222;2024-01-30T00:03:36;19.03;;;10.27;;
20080;SDS011;10200;49.232;9.222;2024-01-30T00:06:03;16.23;;;10.07;;
20080;SDS011;10200;49.232;9.222;2024-01-30T00:08:28;13.80;;;9.43;;
20080;SDS011;10200;49.232;9.222;2024-01-30T00:10:54;14.57;;;9.50;;
20080;SDS011;10200;49.232;9.222;2024-01-30T00:13:20;15.77;;;9.80;;
20080;SDS011;10200;49.232;9.222;2024-01-30T00:15:45;17.50;;;9.70;;
20080;SDS011;10200;49.232;9.222;2024-01-30T00:18:11;17.97;;;9.50;;
20080;SDS011;10200;49.232;9.222;2024-01-30T00:20:37;13.60;;;8.87;;
20080;SDS011;10200;49.232;9.222;2024-01-30T00:23:03;13.00;;;8.87;;
20080;SDS011;10200;49.232;9.222;2024-01-30T00:25:28;14.63;;;9.27;;
20080;SDS011;10200;49.232;9.222;2024-01-30T00:27:54;15.33;;;9.63;;
20080;SDS011;10200;49.232;9.222;2024-01-30T00:30:20;16.67;;;10.70;;
20080;SDS011;10200;49.232;9.222;2024-01-30T00:32:46;15.00;;;10.07;;
20080;SDS011;10200;49.232;9.222;2024-01-30T00:35:11;14.73;;;10.03;;
20080;SDS011;10200;49.232;9.222;2024-01-30T00:37:37;14.57;;;10.23;;
20080;SDS011;10200;49.232;9.222;2024-01-30T00:40:03;13.37;;;9.60;;
20080;SDS011;10200;49.232;9.222;2024-01-30T00:42:29;17.23;;;10.20;;
20080;SDS011;10200;49.232;9.222;2024-01-30T00:44:54;15.97;;;9.80;;
20080;SDS011;10200;49.232;9.222;2024-01-30T00:47:20;15.90;;;10.53;;
20080;SDS011;10200;49.232;9.222;2024-01-30T00:49:45;14.20;;;10.27;;
20080;SDS011;10200;49.232;9.222;2024-01-30T00:52:11;16.60;;;10.27;;
20080;SDS011;10200;49.232;9.222;2024-01-30T00:54:37;13.60;;;9.33;;
20080;SDS011;10200;49.232;9.222;2024-01-30T00:57:02;13.63;;;10.10;;
20080;SDS011;10200;49.232;9.222;2024-01-30T00:59:28;12.07;;;8.63;;
20080;SDS011;10200;49.232;9.222;2024-01-30T01:01:54;14.77;;;10.30;;
20080;SDS011;10200;49.232;9.222;2024-01-30T01:04:19;15.53;;;9.70;;
20080;SDS011;10200;49.232;9.222;2024-01-30T01:06:46;16.07;;;9.87;;
20080;SDS011;10200;49.232;9.222;2024-01-30T01:09:12;13.20;;;9.33;;
20080;SDS011;10200;49.232;9.222;2024-01-30T01:11:37;15.17;;;9.10;;
20080;SDS011;10200;49.232;9.222;2024-01-30T01:14:03;12.70;;;8.90;;
20080;SDS011;10200;49.232;9.222;2024-01-30T01:16:29;15.50;;;10.00;;
20080;SDS011;10200;49.232;9.222;2024-01-30T01:18:55;15.63;;;9.87;;
20080;SDS011;10200;49.232;9.222;2024-01-30T01:21:21;13.87;;;9.43;;
20080;SDS011;10200;49.232;9.222;2024-01-30T01:23:46;13.30;;;8.93;;
20080;SDS011;10200;49.232;9.222;2024-01-30T01:26:12;14.17;;;9.17;;
20080;SDS011;10200;49.232;9.222;2024-01-30T01:28:40;14.17;;;9.30;;
20080;SDS011;10200;49.232;9.222;2024-01-30T01:31:06;13.90;;;8.97;;
20080;SDS011;10200;49.232;9.222;2024-01-30T01:33:32;16.57;;;8.83;;
20080;SDS011;10200;49.232;9.222;2024-01-30T01:35:58;14.67;;;9.23;;
20080;SDS011;10200;49.232;9.222;2024-01-30T01:38:24;12.47;;;8.90;;
20080;SDS011;10200;49.232;9.222;2024-01-30T01:40:50;12.60;;;9.27;;
20080;SDS011;10200;49.232;9.222;2024-01-30T01:43:16;13.77;;;9.00;;
20080;SDS011;10200;49.232;9.222;2024-01-30T01:45:42;13.63;;;9.10;;
20080;SDS011;10200;49.232;9.222;2024-01-30T01:48:07;15.00;;;9.23;;
20080;SDS011;10200;49.232;9.222;2024-01-30T01:50:34;12.80;;;8.80;;
20080;SDS011;10200;49.232;9.222;2024-01-30T01:53:00;13.83;;;8.70;;
20080;SDS011;10200;49.232;9.222;2024-01-30T01:55:26;12.03;;;8.77;;
20080;SDS011;10200;49.232;9.222;2024-01-30T01:57:55;13.73;;;9.13;;
20080;SDS011;10200;49.232;9.222;2024-01-30T02:00:21;10.37;;;8.33;;
20080;SDS011;10200;49.232;9.222;2024-01-30T02:02:47;14.27;;;8.33;;
20080;SDS011;10200;49.232;9.222;2024-01-30T02:05:13;14.50;;;8.50;;
20080;SDS011;10200;49.232;9.222;2024-01-30T02:07:40;15.90;;;8.63;;
20080;SDS011;10200;49.232;9.222;2024-01-30T02:10:07;13.67;;;8.00;;
20080;SDS011;10200;49.232;9.222;2024-01-30T02:12:34;14.27;;;8.77;;
20080;SDS011;10200;49.232;9.222;2024-01-30T02:15:00;12.10;;;8.73;;
20080;SDS011;10200;49.232;9.222;2024-01-30T02:17:26;17.20;;;9.13;;
20080;SDS011;10200;49.232;9.222;2024-01-30T02:19:51;13.30;;;8.50;;
20080;SDS011;10200;49.232;9.222;2024-01-30T02:22:17;9.97;;;7.63;;
20080;SDS011;10200;49.232;9.222;2024-01-30T02:24:44;12.47;;;8.53;;
20080;SDS011;10200;49.232;9.222;2024-01-30T02:27:09;12.90;;;8.23;;
20080;SDS011;10200;49.232;9.222;2024-01-30T02:29:35;11.20;;;8.13;;
20080;SDS011;10200;49.232;9.222;2024-01-30T02:32:01;14.03;;;8.97;;
20080;SDS011;10200;49.232;9.222;2024-01-30T02:34:27;11.43;;;8.67;;
20080;SDS011;10200;49.232;9.222;2024-01-30T02:36:52;11.57;;;8.77;;
20080;SDS011;10200;49.232;9.222;2024-01-30T02:39:18;10.93;;;7.73;;
20080;SDS011;10200;49.232;9.222;2024-01-30T02:41:43;13.73;;;8.50;;
20080;SDS011;10200;49.232;9.222;2024-01-30T02:44:09;11.80;;;8.73;;
20080;SDS011;10200;49.232;9.222;2024-01-30T02:46:35;14.03;;;8.47;;
20080;SDS011;10200;49.232;9.222;2024-01-30T02:49:00;10.93;;;7.93;;
20080;SDS011;10200;49.232;9.222;2024-01-30T02:51:26;9.50;;;8.20;;
20080;SDS011;10200;49.232;9.222;2024-01-30T02:53:51;11.17;;;8.20;;
20080;SDS011;10200;49.232;9.222;2024-01-30T02:56:17;12.30;;;8.47;;
20080;SDS011;10200;49.232;9.222;2024-01-30T02:58:43;13.23;;;8.37;;
20080;SDS011;10200;49.232;9.222;2024-01-30T03:01:08;16.17;;;8.13;;
20080;SDS011;10200;49.232;9.222;2024-01-30T03:03:34;12.40;;;7.60;;
20080;SDS011;10200;49.232;9.222;2024-01-30T03:06:01;11.83;;;8.17;;
20080;SDS011;10200;49.232;9.222;2024-01-30T03:08:27;15.00;;;8.30;;
20080;SDS011;10200;49.232;9.222;2024-01-30T03:10:52;13.73;;;8.13;;
20080;SDS011;10200;49.232;9.222;2024-01-30T03:13:18;12.60;;;7.60;;
20080;SDS011;10200;49.232;9.222;2024-01-30T03:15:44;13.43;;;8.13;;
20080;SDS011;10200;49.232;9.222;2024-01-30T03:18:09;16.77;;;7.80;;
20080;SDS011;10200;49.232;9.222;2024-01-30T03:20:35;12.73;;;7.47;;
20080;SDS011;10200;49.232;9.222;2024-01-30T03:23:01;16.03;;;8.57;;
20080;SDS011;10200;49.232;9.222;2024-01-30T03:25:26;14.40;;;8.83;;
20080;SDS011;10200;49.232;9.222;2024-01-30T03:27:52;15.40;;;8.93;;
20080;SDS011;10200;49.232;9.222;2024-01-30T03:30:17;12.30;;;8.40;;
20080;SDS011;10200;49.232;9.222;2024-01-30T03:32:43;11.67;;;8.17;;
20080;SDS011;10200;49.232;9.222;2024-01-30T03:35:09;13.30;;;8.60;;
20080;SDS011;10200;49.232;9.222;2024-01-30T03:37:35;12.53;;;7.70;;
20080;SDS011;10200;49.232;9.222;2024-01-30T03:40:01;11.37;;;7.47;;
20080;SDS011;10200;49.232;9.222;2024-01-30T03:42:27;22.00;;;8.57;;
20080;SDS011;10200;49.232;9.222;2024-01-30T03:44:53;11.67;;;7.40;;
20080;SDS011;10200;49.232;9.222;2024-01-30T03:47:20;12.70;;;8.67;;
20080;SDS011;10200;49.232;9.222;2024-01-30T03:49:46;12.80;;;8.53;;
20080;SDS011;10200;49.232;9.222;2024-01-30T03:52:11;13.07;;;8.30;;
20080;SDS011;10200;49.232;9.222;2024-01-30T03:54:37;11.80;;;8.17;;
20080;SDS011;10200;49.232;9.222;2024-01-30T03:57:03;14.67;;;7.27;;
20080;SDS011;10200;49.232;9.222;2024-01-30T03:59:28;11.70;;;7.93;;
20080;SDS011;10200;49.232;9.222;2024-01-30T04:01:54;11.90;;;7.63;;
20080;SDS011;10200;49.232;9.222;2024-01-30T04:04:20;12.57;;;7.80;;
20080;SDS011;10200;49.232;9.222;2024-01-30T04:06:46;10.20;;;7.30;;
20080;SDS011;10200;49.232;9.222;2024-01-30T04:09:12;12.13;;;7.97;;
20080;SDS011;10200;49.232;9.222;2024-01-30T04:11:38;11.03;;;7.20;;
20080;SDS011;10200;49.232;9.222;2024-01-30T04:14:04;14.97;;;7.67;;
20080;SDS011;10200;49.232;9.222;2024-01-30T04:16:30;13.87;;;7.83;;
20080;SDS011;10200;49.232;9.222;2024-01-30T04:18:56;11.10;;;7.47;;
20080;SDS011;10200;49.232;9.222;2024-01-30T04:21:23;13.73;;;8.07;;
20080;SDS011;10200;49.232;9.222;2024-01-30T04:23:48;16.13;;;7.83;;
20080;SDS011;10200;49.232;9.222;2024-01-30T04:26:15;10.70;;;7.63;;
20080;SDS011;10200;49.232;9.222;2024-01-30T04:28:41;14.13;;;8.43;;
20080;SDS011;10200;49.232;9.222;2024-01-30T04:31:07;12.03;;;8.30;;
20080;SDS011;10200;49.232;9.222;2024-01-30T04:33:33;14.60;;;8.77;;
20080;SDS011;10200;49.232;9.222;2024-01-30T04:35:59;12.43;;;8.27;;
20080;SDS011;10200;49.232;9.222;2024-01-30T04:38:24;15.80;;;7.70;;
20080;SDS011;10200;49.232;9.222;2024-01-30T04:40:50;11.83;;;8.70;;
20080;SDS011;10200;49.232;9.222;2024-01-30T04:43:15;11.97;;;8.20;;
20080;SDS011;10200;49.232;9.222;2024-01-30T04:45:41;13.33;;;8.00;;
20080;SDS011;10200;49.232;9.222;2024-01-30T04:48:07;11.80;;;7.53;;
20080;SDS011;10200;49.232;9.222;2024-01-30T04:50:32;13.10;;;8.63;;
20080;SDS011;10200;49.232;9.222;2024-01-30T04:52:58;12.73;;;7.73;;
20080;SDS011;10200;49.232;9.222;2024-01-30T04:55:24;10.53;;;7.53;;
20080;SDS011;10200;49.232;9.222;2024-01-30T04:57:49;13.77;;;8.73;;
20080;SDS011;10200;49.232;9.222;2024-01-30T05:00:15;16.57;;;8.07;;
20080;SDS011;10200;49.232;9.222;2024-01-30T05:02:42;12.17;;;8.17;;
20080;SDS011;10200;49.232;9.222;2024-01-30T05:05:08;11.50;;;8.13;;
20080;SDS011;10200;49.232;9.222;2024-01-30T05:07:33;10.80;;;7.50;;
20080;SDS011;10200;49.232;9.222;2024-01-30T05:09:59;10.80;;;8.13;;
20080;SDS011;10200;49.232;9.222;2024-01-30T05:12:25;14.90;;;8.63;;
20080;SDS011;10200;49.232;9.222;2024-01-30T05:14:51;11.83;;;7.70;;
20080;SDS011;10200;49.232;9.222;2024-01-30T05:17:16;11.47;;;7.50;;
20080;SDS011;10200;49.232;9.222;2024-01-30T05:19:43;17.03;;;9.00;;
20080;SDS011;10200;49.232;9.222;2024-01-30T05:22:09;12.87;;;8.77;;
20080;SDS011;10200;49.232;9.222;2024-01-30T05:24:35;11.67;;;7.53;;
20080;SDS011;10200;49.232;9.222;2024-01-30T05:27:02;11.27;;;8.47;;
20080;SDS011;10200;49.232;9.222;2024-01-30T05:29:27;13.73;;;8.03;;
20080;SDS011;10200;49.232;9.222;2024-01-30T05:31:53;13.63;;;7.97;;
20080;SDS011;10200;49.232;9.222;2024-01-30T05:34:19;14.17;;;8.00;;
20080;SDS011;10200;49.232;9.222;2024-01-30T05:36:44;14.57;;;8.37;;
20080;SDS011;10200;49.232;9.222;2024-01-30T05:39:10;17.07;;;7.83;;
20080;SDS011;10200;49.232;9.222;2024-01-30T05:41:36;15.50;;;6.73;;
20080;SDS011;10200;49.232;9.222;2024-01-30T05:44:01;9.83;;;7.97;;
20080;SDS011;10200;49.232;9.222;2024-01-30T05:46:27;14.73;;;8.30;;
20080;SDS011;10200;49.232;9.222;2024-01-30T05:48:53;13.43;;;8.23;;
20080;SDS011;10200;49.232;9.222;2024-01-30T05:51:18;13.37;;;7.40;;
20080;SDS011;10200;49.232;9.222;2024-01-30T05:53:44;13.27;;;7.87;;
20080;SDS011;10200;49.232;9.222;2024-01-30T05:56:09;12.20;;;7.87;;
20080;SDS011;10200;49.232;9.222;2024-01-30T05:58:35;14.93;;;7.40;;
20080;SDS011;10200;49.232;9.222;2024-01-30T06:01:02;14.43;;;7.83;;
20080;SDS011;10200;49.232;9.222;2024-01-30T06:03:31;13.73;;;7.50;;
20080;SDS011;10200;49.232;9.222;2024-01-30T06:05:57;11.33;;;6.87;;
20080;SDS011;10200;49.232;9.222;2024-01-30T06:08:22;17.17;;;7.53;;
20080;SDS011;10200;49.232;9.222;2024-01-30T06:10:48;10.73;;;7.00;;
20080;SDS011;10200;49.232;9.222;2024-01-30T06:13:14;10.90;;;8.43;;
20080;SDS011;10200;49.232;9.222;2024-01-30T06:15:40;12.00;;;6.93;;
20080;SDS011;10200;49.232;9.222;2024-01-30T06:18:05;9.37;;;7.37;;
20080;SDS011;10200;49.232;9.222;2024-01-30T06:20:31;15.17;;;7.67;;
20080;SDS011;10200;49.232;9.222;2024-01-30T06:22:56;12.20;;;7.80;;
20080;SDS011;10200;49.232;9.222;2024-01-30T06:25:22;12.93;;;7.97;;
20080;SDS011;10200;49.232;9.222;2024-01-30T06:27:48;13.73;;;7.60;;
20080;SDS011;10200;49.232;9.222;2024-01-30T06:30:13;17.30;;;8.80;;
20080;SDS011;10200;49.232;9.222;2024-01-30T06:32:39;12.70;;;7.70;;
20080;SDS011;10200;49.232;9.222;2024-01-30T06:35:05;16.33;;;8.40;;
20080;SDS011;10200;49.232;9.222;2024-01-30T06:37:31;15.30;;;8.63;;
20080;SDS011;10200;49.232;9.222;2024-01-30T06:39:56;13.23;;;8.00;;
20080;SDS011;10200;49.232;9.222;2024-01-30T06:42:22;19.80;;;9.87;;
20080;SDS011;10200;49.232;9.222;2024-01-30T06:44:47;18.77;;;9.73;;
20080;SDS011;10200;49.232;9.222;2024-01-30T06:47:13;15.27;;;8.53;;
20080;SDS011;10200;49.232;9.222;2024-01-30T06:49:39;20.03;;;8.63;;
20080;SDS011;10200;49.232;9.222;2024-01-30T06:52:07;22.17;;;7.83;;
20080;SDS011;10200;49.232;9.222;2024-01-30T06:54:33;17.10;;;8.90;;
20080;SDS011;10200;49.232;9.222;2024-01-30T06:56:59;16.40;;;8.80;;
20080;SDS011;10200;49.232;9.222;2024-01-30T06:59:25;13.33;;;8.33;;
20080;SDS011;10200;49.232;9.222;2024-01-30T07:01:50;12.10;;;7.87;;
20080;SDS011;10200;49.232;9.222;2024-01-30T07:04:16;14.83;;;8.67;;
20080;SDS011;10200;49.232;9.222;2024-01-30T07:06:43;12.70;;;8.43;;
20080;SDS011;10200;49.232;9.222;2024-01-30T07:09:09;10.30;;;6.93;;
20080;SDS011;10200;49.232;9.222;2024-01-30T07:11:34;17.90;;;8.53;;
20080;SDS011;10200;49.232;9.222;2024-01-30T07:14:00;14.63;;;8.60;;
20080;SDS011;10200;49.232;9.222;2024-01-30T07:16:28;12.80;;;8.40;;
20080;SDS011;10200;49.232;9.222;2024-01-30T07:18:54;13.57;;;8.67;;
20080;SDS011;10200;49.232;9.222;2024-01-30T07:21:19;14.63;;;8.03;;
20080;SDS011;10200;49.232;9.222;2024-01-30T07:23:46;14.33;;;8.27;;
20080;SDS011;10200;49.232;9.222;2024-01-30T07:26:12;15.83;;;8.33;;
20080;SDS011;10200;49.232;9.222;2024-01-30T07:28:38;14.93;;;8.43;;
20080;SDS011;10200;49.232;9.222;2024-01-30T07:31:03;11.53;;;7.77;;
20080;SDS011;10200;49.232;9.222;2024-01-30T07:33:29;15.70;;;8.33;;
20080;SDS011;10200;49.232;9.222;2024-01-30T07:35:54;11.27;;;8.33;;
20080;SDS011;10200;49.232;9.222;2024-01-30T07:38:20;13.93;;;8.70;;
20080;SDS011;10200;49.232;9.222;2024-01-30T07:40:45;12.77;;;8.47;;
20080;SDS011;10200;49.232;9.222;2024-01-30T07:43:11;13.67;;;8.80;;
20080;SDS011;10200;49.232;9.222;2024-01-30T07:45:37;14.27;;;9.60;;
20080;SDS011;10200;49.232;9.222;2024-01-30T07:48:04;13.57;;;8.97;;
20080;SDS011;10200;49.232;9.222;2024-01-30T07:50:30;14.60;;;8.83;;
20080;SDS011;10200;49.232;9.222;2024-01-30T07:52:56;13.83;;;9.97;;
20080;SDS011;10200;49.232;9.222;2024-01-30T07:55:22;13.27;;;8.70;;
20080;SDS011;10200;49.232;9.222;2024-01-30T07:57:54;15.57;;;9.97;;
20080;SDS011;10200;49.232;9.222;2024-01-30T08:00:20;16.70;;;9.87;;
20080;SDS011;10200;49.232;9.222;2024-01-30T08:02:47;14.60;;;9.97;;
20080;SDS011;10200;49.232;9.222;2024-01-30T08:05:13;15.03;;;9.80;;
20080;SDS011;10200;49.232;9.222;2024-01-30T08:07:40;21.43;;;10.53;;
20080;SDS011;10200;49.232;9.222;2024-01-30T08:10:07;14.33;;;10.53;;
20080;SDS011;10200;49.232;9.222;2024-01-30T08:12:33;15.93;;;10.43;;
20080;SDS011;10200;49.232;9.222;2024-01-30T08:14:58;16.13;;;11.30;;
20080;SDS011;10200;49.232;9.222;2024-01-30T08:17:24;17.53;;;11.63;;
20080;SDS011;10200;49.232;9.222;2024-01-30T08:19:49;16.33;;;11.17;;
20080;SDS011;10200;49.232;9.222;2024-01-30T08:22:15;16.97;;;11.83;;
20080;SDS011;10200;49.232;9.222;2024-01-30T08:24:40;16.83;;;11.17;;
20080;SDS011;10200;49.232;9.222;2024-01-30T08:27:06;17.20;;;10.87;;
20080;SDS011;10200;49.232;9.222;2024-01-30T08:29:35;15.60;;;11.07;;
20080;SDS011;10200;49.232;9.222;2024-01-30T08:32:00;17.63;;;10.40;;
20080;SDS011;10200;49.232;9.222;2024-01-30T08:34:26;19.47;;;10.83;;
20080;SDS011;10200;49.232;9.222;2024-01-30T08:36:52;17.83;;;10.70;;
20080;SDS011;10200;49.232;9.222;2024-01-30T08:39:18;17.03;;;11.17;;
20080;SDS011;10200;49.232;9.222;2024-01-30T08:41:44;17.47;;;13.10;;
20080;SDS011;10200;49.232;9.222;2024-01-30T08:44:09;19.10;;;12.37;;
20080;SDS011;10200;49.232;9.222;2024-01-30T08:46:36;16.50;;;11.77;;
20080;SDS011;10200;49.232;9.222;2024-01-30T08:49:02;16.93;;;12.10;;
20080;SDS011;10200;49.232;9.222;2024-01-30T08:51:29;18.07;;;10.93;;
20080;SDS011;10200;49.232;9.222;2024-01-30T08:53:54;15.70;;;10.50;;
20080;SDS011;10200;49.232;9.222;2024-01-30T08:56:20;13.23;;;9.20;;
20080;SDS011;10200;49.232;9.222;2024-01-30T08:58:46;12.57;;;9.83;;
20080;SDS011;10200;49.232;9.222;2024-01-30T09:01:11;13.67;;;9.23;;
20080;SDS011;10200;49.232;9.222;2024-01-30T09:03:37;13.70;;;8.37;;
20080;SDS011;10200;49.232;9.222;2024-01-30T09:06:08;12.93;;;8.67;;
20080;SDS011;10200;49.232;9.222;2024-01-30T09:08:34;14.83;;;9.10;;
20080;SDS011;10200;49.232;9.222;2024-01-30T09:10:59;11.57;;;8.17;;
20080;SDS011;10200;49.232;9.222;2024-01-30T09:13:25;11.67;;;8.63;;
20080;SDS011;10200;49.232;9.222;2024-01-30T09:15:51;14.80;;;8.23;;
20080;SDS011;10200;49.232;9.222;2024-01-30T09:18:17;16.83;;;9.23;;
20080;SDS011;10200;49.232;9.222;2024-01-30T09:20:43;17.33;;;8.53;;
20080;SDS011;10200;49.232;9.222;2024-01-30T09:23:12;15.47;;;10.33;;
20080;SDS011;10200;49.232;9.222;2024-01-30T09:25:38;15.73;;;9.50;;
20080;SDS011;10200;49.232;9.222;2024-01-30T09:28:03;17.60;;;9.80;;
20080;SDS011;10200;49.232;9.222;2024-01-30T09:30:29;19.47;;;10.20;;
20080;SDS011;10200;49.232;9.222;2024-01-30T09:32:55;15.50;;;10.20;;
20080;SDS011;10200;49.232;9.222;2024-01-30T09:35:21;18.77;;;9.97;;
20080;SDS011;10200;49.232;9.222;2024-01-30T09:37:46;13.40;;;7.97;;
20080;SDS011;10200;49.232;9.222;2024-01-30T09:40:13;17.83;;;9.10;;
20080;SDS011;10200;49.232;9.222;2024-01-30T09:42:39;12.80;;;8.93;;
20080;SDS011;10200;49.232;9.222;2024-01-30T09:45:05;14.23;;;10.07;;
20080;SDS011;10200;49.232;9.222;2024-01-30T09:47:31;12.90;;;9.50;;
20080;SDS011;10200;49.232;9.222;2024-01-30T09:50:01;14.47;;;10.33;;
20080;SDS011;10200;49.232;9.222;2024-01-30T09:52:27;14.37;;;10.33;;
20080;SDS011;10200;49.232;9.222;2024-01-30T09:54:53;13.37;;;9.27;;
20080;SDS011;10200;49.232;9.222;2024-01-30T09:57:19;15.17;;;8.70;;
20080;SDS011;10200;49.232;9.222;2024-01-30T09:59:45;15.80;;;9.77;;
20080;SDS011;10200;49.232;9.222;2024-01-30T10:02:11;12.27;;;9.07;;
20080;SDS011;10200;49.232;9.222;2024-01-30T10:04:37;11.93;;;8.90;;
20080;SDS011;10200;49.232;9.222;2024-01-30T10:07:03;12.57;;;9.20;;
20080;SDS011;10200;49.232;9.222;2024-01-30T10:09:31;14.50;;;9.70;;
20080;SDS011;10200;49.232;9.222;2024-01-30T10:11:58;15.97;;;9.57;;
20080;SDS011;10200;49.232;9.222;2024-01-30T10:14:24;16.13;;;10.13;;
20080;SDS011;10200;49.232;9.222;2024-01-30T10:16:50;13.80;;;9.83;;
20080;SDS011;10200;49.232;9.222;2024-01-30T10:19:16;14.77;;;9.67;;
20080;SDS011;10200;49.232;9.222;2024-01-30T10:21:41;14.50;;;9.17;;
20080;SDS011;10200;49.232;9.222;2024-01-30T10:24:07;13.53;;;8.67;;
20080;SDS011;10200;49.232;9.222;2024-01-30T10:26:32;14.17;;;9.23;;
20080;SDS011;10200;49.232;9.222;2024-01-30T10:28:59;12.77;;;9.37;;
20080;SDS011;10200;49.232;9.222;2024-01-30T10:31:25;18.00;;;10.03;;
20080;SDS011;10200;49.232;9.222;2024-01-30T10:33:50;14.33;;;10.03;;
20080;SDS011;10200;49.232;9.222;2024-01-30T10:36:16;14.13;;;9.23;;
20080;SDS011;10200;49.232;9.222;2024-01-30T10:38:43;17.80;;;10.13;;
20080;SDS011;10200;49.232;9.222;2024-01-30T10:41:11;14.07;;;10.00;;
20080;SDS011;10200;49.232;9.222;2024-01-30T10:43:43;13.23;;;9.67;;
20080;SDS011;10200;49.232;9.222;2024-01-30T10:46:18;17.13;;;10.40;;
20080;SDS011;10200;49.232;9.222;2024-01-30T10:48:49;13.27;;;10.23;;
20080;SDS011;10200;49.232;9.222;2024-01-30T10:51:18;15.23;;;9.80;;
20080;SDS011;10200;49.232;9.222;2024-01-30T10:53:45;14.47;;;10.00;;
20080;SDS011;10200;49.232;9.222;2024-01-30T10:56:11;15.03;;;10.70;;
20080;SDS011;10200;49.232;9.222;2024-01-30T10:58:38;17.50;;;10.13;;
20080;SDS011;10200;49.232;9.222;2024-01-30T11:01:04;16.20;;;10.47;;
20080;SDS011;10200;49.232;9.222;2024-01-30T11:03:31;13.40;;;9.80;;
20080;SDS011;10200;49.232;9.222;2024-01-30T11:05:59;13.93;;;9.70;;
20080;SDS011;10200;49.232;9.222;2024-01-30T11:08:26;13.00;;;9.53;;
20080;SDS011;10200;49.232;9.222;2024-01-30T11:10:57;13.80;;;9.47;;
20080;SDS011;10200;49.232;9.222;2024-01-30T11:13:29;13.47;;;10.13;;
20080;SDS011;10200;49.232;9.222;2024-01-30T11:16:00;12.57;;;9.77;;
20080;SDS011;10200;49.232;9.222;2024-01-30T11:18:28;16.57;;;9.27;;
20080;SDS011;10200;49.232;9.222;2024-01-30T11:21:01;9.97;;;8.90;;
20080;SDS011;10200;49.232;9.222;2024-01-30T11:23:30;13.40;;;9.53;;
20080;SDS011;10200;49.232;9.222;2024-01-30T11:25:58;15.07;;;9.97;;
20080;SDS011;10200;49.232;9.222;2024-01-30T11:28:23;16.87;;;9.10;;
20080;SDS011;10200;49.232;9.222;2024-01-30T11:30:49;13.23;;;9.73;;
20080;SDS011;10200;49.232;9.222;2024-01-30T11:33:28;14.70;;;9.57;;
20080;SDS011;10200;49.232;9.222;2024-01-30T11:35:58;16.43;;;10.47;;
20080;SDS011;10200;49.232;9.222;2024-01-30T11:38:25;15.97;;;9.17;;
20080;SDS011;10200;49.232;9.222;2024-01-30T11:40:55;17.97;;;8.77;;
20080;SDS011;10200;49.232;9.222;2024-01-30T11:43:21;11.07;;;8.10;;
20080;SDS011;10200;49.232;9.222;2024-01-30T11:45:47;14.13;;;9.20;;
20080;SDS011;10200;49.232;9.222;2024-01-30T11:48:13;13.17;;;10.10;;
20080;SDS011;10200;49.232;9.222;2024-01-30T11:50:39;13.97;;;10.00;;
20080;SDS011;10200;49.232;9.222;2024-01-30T11:53:09;13.07;;;9.43;;
20080;SDS011;10200;49.232;9.222;2024-01-30T11:55:35;14.10;;;9.43;;
20080;SDS011;10200;49.232;9.222;2024-01-30T11:58:02;12.83;;;9.03;;
20080;SDS011;10200;49.232;9.222;2024-01-30T12:00:29;15.67;;;9.50;;
20080;SDS011;10200;49.232;9.222;2024-01-30T12:02:55;14.80;;;10.40;;
20080;SDS011;10200;49.232;9.222;2024-01-30T12:05:22;16.00;;;10.63;;
20080;SDS011;10200;49.232;9.222;2024-01-30T12:07:48;11.03;;;8.83;;
20080;SDS011;10200;49.232;9.222;2024-01-30T12:10:14;12.27;;;8.80;;
20080;SDS011;10200;49.232;9.222;2024-01-30T12:12:44;10.47;;;8.37;;
20080;SDS011;10200;49.232;9.222;2024-01-30T12:15:12;11.40;;;8.80;;
20080;SDS011;10200;49.232;9.222;2024-01-30T12:17:38;10.90;;;8.37;;
20080;SDS011;10200;49.232;9.222;2024-01-30T12:22:37;11.20;;;8.80;;
20080;SDS011;10200;49.232;9.222;2024-01-30T12:25:10;11.20;;;8.67;;
20080;SDS011;10200;49.232;9.222;2024-01-30T12:27:42;10.27;;;7.90;;
20080;SDS011;10200;49.232;9.222;2024-01-30T12:30:09;10.67;;;7.70;;
20080;SDS011;10200;49.232;9.222;2024-01-30T12:32:45;26.50;;;14.00;;
20080;SDS011;10200;49.232;9.222;2024-01-30T12:35:17;13.30;;;9.57;;
20080;SDS011;10200;49.232;9.222;2024-01-30T12:37:44;14.67;;;10.03;;
20080;SDS011;10200;49.232;9.222;2024-01-30T12:40:11;15.03;;;9.57;;
20080;SDS011;10200;49.232;9.222;2024-01-30T12:42:39;12.43;;;9.53;;
20080;SDS011;10200;49.232;9.222;2024-01-30T12:45:06;11.40;;;9.10;;
20080;SDS011;10200;49.232;9.222;2024-01-30T12:47:32;12.27;;;9.60;;
20080;SDS011;10200;49.232;9.222;2024-01-30T12:49:58;14.60;;;8.63;;
20080;SDS011;10200;49.232;9.222;2024-01-30T12:52:24;10.97;;;8.97;;
20080;SDS011;10200;49.232;9.222;2024-01-30T12:54:50;15.63;;;9.87;;
20080;SDS011;10200;49.232;9.222;2024-01-30T12:57:16;13.70;;;9.03;;
20080;SDS011;10200;49.232;9.222;2024-01-30T12:59:43;13.37;;;9.90;;
20080;SDS011;10200;49.232;9.222;2024-01-30T13:02:09;11.57;;;8.33;;
20080;SDS011;10200;49.232;9.222;2024-01-30T13:04:35;16.27;;;9.07;;
20080;SDS011;10200;49.232;9.222;2024-01-30T13:07:01;9.90;;;8.17;;
20080;SDS011;10200;49.232;9.222;2024-01-30T13:09:29;12.87;;;9.43;;
20080;SDS011;10200;49.232;9.222;2024-01-30T13:11:55;10.93;;;8.43;;
20080;SDS011;10200;49.232;9.222;2024-01-30T13:14:21;11.10;;;8.40;;
20080;SDS011;10200;49.232;9.222;2024-01-30T13:16:46;10.97;;;7.93;;
20080;SDS011;10200;49.232;9.222;2024-01-30T13:19:12;10.90;;;8.53;;
20080;SDS011;10200;49.232;9.222;2024-01-30T13:21:38;11.27;;;8.43;;
20080;SDS011;10200;49.232;9.222;2024-01-30T13:24:04;10.53;;;8.03;;
20080;SDS011;10200;49.232;9.222;2024-01-30T13:26:31;11.07;;;8.10;;
20080;SDS011;10200;49.232;9.222;2024-01-30T13:28:57;10.63;;;8.17;;
20080;SDS011;10200;49.232;9.222;2024-01-30T13:31:23;11.00;;;8.43;;
20080;SDS011;10200;49.232;9.222;2024-01-30T13:33:49;12.77;;;8.70;;
20080;SDS011;10200;49.232;9.222;2024-01-30T13:36:14;15.87;;;7.37;;
20080;SDS011;10200;49.232;9.222;2024-01-30T13:38:40;10.97;;;8.07;;
20080;SDS011;10200;49.232;9.222;2024-01-30T13:41:06;13.30;;;8.97;;
20080;SDS011;10200;49.232;9.222;2024-01-30T13:43:32;11.10;;;7.77;;
20080;SDS011;10200;49.232;9.222;2024-01-30T13:45:57;17.50;;;8.50;;
20080;SDS011;10200;49.232;9.222;2024-01-30T13:48:23;12.77;;;8.90;;
20080;SDS011;10200;49.232;9.222;2024-01-30T13:50:49;11.53;;;8.63;;
20080;SDS011;10200;49.232;9.222;2024-01-30T13:53:15;12.50;;;9.37;;
20080;SDS011;10200;49.232;9.222;2024-01-30T13:55:40;16.47;;;9.80;;
20080;SDS011;10200;49.232;9.222;2024-01-30T13:58:06;11.83;;;8.07;;
20080;SDS011;10200;49.232;9.222;2024-01-30T14:00:32;11.57;;;9.00;;
20080;SDS011;10200;49.232;9.222;2024-01-30T14:02:58;11.87;;;9.37;;
20080;SDS011;10200;49.232;9.222;2024-01-30T14:05:25;13.40;;;9.43;;
20080;SDS011;10200;49.232;9.222;2024-01-30T14:07:52;12.47;;;8.60;;
20080;SDS011;10200;49.232;9.222;2024-01-30T14:10:18;11.70;;;8.67;;
20080;SDS011;10200;49.232;9.222;2024-01-30T14:12:44;14.83;;;9.70;;
20080;SDS011;10200;49.232;9.222;2024-01-30T14:15:10;13.00;;;9.90;;
20080;SDS011;10200;49.232;9.222;2024-01-30T14:17:37;13.70;;;9.73;;
20080;SDS011;10200;49.232;9.222;2024-01-30T14:20:03;11.97;;;9.30;;
20080;SDS011;10200;49.232;9.222;2024-01-30T14:22:33;12.40;;;9.07;;
20080;SDS011;10200;49.232;9.222;2024-01-30T14:24:59;17.10;;;9.27;;
20080;SDS011;10200;49.232;9.222;2024-01-30T14:27:31;15.17;;;10.53;;
20080;SDS011;10200;49.232;9.222;2024-01-30T14:29:57;13.27;;;9.10;;